AirNav   Everest Fuels
 
 1135 users online  

8XS3 J A Knolle Airport
Sandia, Texas, USA

GOING TO SANDIA?


FAA INFORMATION EFFECTIVE 07 OCTOBER 2021

Location

FAA Identifier: 8XS3
Lat/Long: 27-59-38.0100N 097-49-14.0400W
27-59.633500N 097-49.234000W
27.9938917,-97.8205667
(estimated)
Elevation: 41 ft. / 12 m (estimated)
From city: 4 miles SE of SANDIA, TX
Time zone: UTC -5 (UTC -6 during Standard Time)
Zip code: 78368

Airport Operations

Airport use: Private use. Permission required prior to landing
Activation date: 08/2018
Control tower: no
ARTCC: HOUSTON CENTER
FSS: SAN ANGELO FLIGHT SERVICE STATION
Attendance: 
Wind indicator: yes
Segmented circle: no

Airport Communications

WX AWOS-3 at RBO (15 nm SE): 118.175 (361-767-1982)
WX AWOS-3 at T69 (15 nm E): 118.25 (361-364-1844)
WX ASOS at ALI (19 nm SW): 119.225 (361-668-0069)

Nearby radio navigation aids

VOR radial/distance  VOR name  Freq  Var
ALIr029/(18.6)ALICE VOR114.5006E
CRPr276/20.6CORPUS CHRISTI VORTAC115.5009E
THXr142/35.3THREE RIVERS VORTAC111.4008E

 
NDB name  Hdg/Dist  Freq  Var  ID
MELLON RANCH236/36.837506EMNO -- -. ---

Airport Services

Runway Information

Runway 13/31

Dimensions: 3000 x 50 ft. / 914 x 15 m
Surface: turf, in good condition
RUNWAY 13  RUNWAY 31
Traffic pattern: rightleft

Airport Ownership and Management from official FAA records

Ownership: Privately-owned
Owner: PEARSON KNOLLE
PO BOX 119
SANDIA, TX 78383
Phone 361-813-6551
Manager: PEARSON KNOLLE
PO BOX 119
SANDIA, TX 78383
Phone 361-813-6551

Additional Remarks

OWNER DESIRES CHARTING

Instrument Procedures

There are no published instrument procedures at 8XS3.

Some nearby airports with instrument procedures:

KNOG - Orange Grove Naval Auxiliary Field (13 nm SW)
KRBO - Nueces County Airport (15 nm SE)
T69 - Alfred C 'Bubba' Thomas Airport (15 nm E)
KALI - Alice International Airport (19 nm SW)
KCRP - Corpus Christi International Airport (21 nm SE)
 
Loc | Ops | Rwys | IFR | FBO | Links
Com | Nav | Svcs | Stats | Notes
Aerial photo
No photo
 
Airport distance calculator
Flying to J A Knolle Airport? Find the distance to fly.

From to 8XS3

Sunrise and sunset
Times for 15-Oct-2021
 Local
(UTC-5)
 Zulu
(UTC)
Morning civil twilight07:0912:09
Sunrise07:3312:33
Sunset19:0100:01
Evening civil twilight19:2500:25

Current date and time
Zulu (UTC)  15-Oct-2021 23:26:58
Local (UTC-5)  15-Oct-2021 18:26:58
 
METAR
KNOG 
13nm SW 
152256Z AUTO 32003KT 10SM CLR 28/21 A2992 RMK AO2 SLP110 T02780211 PNO $
KRBO 
15nm SE 
152315Z AUTO 12009KT 10SM CLR 30/27 A2992 RMK AO2 T03010266
KT69 
15nm E 
152315Z AUTO 15006KT 10SM FEW035 28/26 A2992 RMK A01
KALI 
19nm SW 
152253Z AUTO 34004KT 10SM -RA FEW070 BKN100 BKN120 27/23 A2991 RMK AO2 RAB44 SLP126 P0000 T02670228
KCRP 
22nm SE 
152251Z 15008KT 10SM FEW025 FEW060 SCT090 BKN250 29/25 A2992 RMK AO2 SLP129 CB DSNT N NE SW NW MOV SE T02940250
KBEA 
22nm N 
152315Z AUTO 00000KT 10SM CLR 31/27 A2992 RMK AO2 T03100271
TAF
KALI 
19nm SW 
151734Z 1518/1618 17010KT P6SM FEW018 SCT028 FM152200 04010KT P6SM VCSH SCT020 BKN040 TEMPO 1522/1602 -SHRA BKN020 FM160300 02015G23KT P6SM SCT045 BKN250
KCRP 
22nm SE 
151734Z 1518/1618 VRB06KT P6SM SCT023 BKN035 FM152200 06010KT P6SM VCSH SCT020 BKN035 TEMPO 1522/1602 -SHRA BKN020 FM160300 02021G33KT P6SM SCT050 BKN250
NOTAMs
Click for the latest NOTAMs
NOTAMs are issued by the DoD/FAA and will open in a separate window not controlled by AirNav.

 

 
 

Would you like to see your business listed on this page?

 If your business provides an interesting product or service to pilots, flight crews, aircraft, or users of the J A Knolle Airport, you should consider listing it here.  To start the listing process, click on the button below
 
Add a business
 

Other Pages about J A Knolle Airport

Update a link
 
Copyright © AirNav, LLC. All rights reserved. Privacy Policy  Contact